TimeEDT,TemperatureF,Dew PointF,Humidity,Sea Level PressureIn,VisibilityMPH,Wind Direction,Wind SpeedMPH,Gust SpeedMPH,PrecipitationIn,Events,Conditions,WindDirDegrees,DateUTC
12:15 AM,77.4,75.2,93,30.15,7.0,SW,4.6,-,N/A,,Clear,220,2013-07-18 04:15:00
12:35 AM,77.9,75.4,92,30.15,7.0,SW,4.6,-,N/A,,Clear,220,2013-07-18 04:35:00
12:55 AM,77.9,75.2,91,30.15,7.0,SW,3.5,-,N/A,,Clear,220,2013-07-18 04:55:00
1:15 AM,77.0,74.7,92,30.14,5.0,SSW,3.5,-,N/A,,Clear,210,2013-07-18 05:15:00
1:35 AM,76.1,74.3,94,30.14,5.0,Calm,Calm,-,N/A,,Clear,0,2013-07-18 05:35:00
1:55 AM,75.6,73.4,93,30.14,7.0,Calm,Calm,-,N/A,,Clear,0,2013-07-18 05:55:00
2:15 AM,75.4,73.4,94,30.14,7.0,Calm,Calm,-,N/A,,Clear,0,2013-07-18 06:15:00
2:35 AM,75.2,73.6,95,30.14,5.0,Calm,Calm,-,N/A,,Clear,0,2013-07-18 06:35:00
2:55 AM,75.6,73.6,94,30.13,7.0,Calm,Calm,-,N/A,,Clear,0,2013-07-18 06:55:00
3:15 AM,75.2,73.4,94,30.13,5.0,Calm,Calm,-,N/A,,Clear,0,2013-07-18 07:15:00
3:35 AM,74.3,72.7,95,30.13,5.0,Calm,Calm,-,N/A,,Clear,0,2013-07-18 07:35:00
3:55 AM,73.8,72.5,96,30.13,4.0,Calm,Calm,-,N/A,,Clear,0,2013-07-18 07:55:00
4:15 AM,73.6,72.5,96,30.13,4.0,Calm,Calm,-,N/A,,Clear,0,2013-07-18 08:15:00
4:35 AM,73.9,72.9,96,30.12,5.0,Calm,Calm,-,N/A,,Clear,0,2013-07-18 08:35:00
4:55 AM,73.8,72.5,96,30.12,5.0,Calm,Calm,-,N/A,,Clear,0,2013-07-18 08:55:00
5:15 AM,73.6,72.5,96,30.13,4.0,Calm,Calm,-,N/A,,Clear,0,2013-07-18 09:15:00
5:35 AM,73.9,72.9,96,30.13,4.0,Calm,Calm,-,N/A,,Clear,0,2013-07-18 09:35:00
5:55 AM,73.4,72.1,96,30.13,2.5,Calm,Calm,-,N/A,,Mist,0,2013-07-18 09:55:00
6:15 AM,73.4,72.5,97,30.14,1.8,Calm,Calm,-,N/A,,Mist,0,2013-07-18 10:15:00
6:30 AM,73.4,71.6,94,30.13,2.0,Calm,Calm,-,N/A,,Clear,0,2013-07-18 10:30:00
6:35 AM,73.2,72.3,97,30.14,3.0,Calm,Calm,-,N/A,,Mist,0,2013-07-18 10:35:00
6:55 AM,73.8,72.9,97,30.15,2.0,Calm,Calm,-,N/A,,Mist,0,2013-07-18 10:55:00
6:56 AM,73.4,73.4,100,30.15,2.5,Calm,Calm,-,N/A,,Clear,0,2013-07-18 10:56:00
7:50 AM,78.8,75.2,89,30.15,3.0,Calm,Calm,-,N/A,,Clear,0,2013-07-18 11:50:00
8:56 AM,82.4,73.4,74,30.15,5.0,WSW,3.5,-,N/A,,Haze,240,2013-07-18 12:56:00
9:56 AM,86.0,71.6,62,30.14,7.0,SW,5.8,-,N/A,,Clear,230,2013-07-18 13:56:00
10:56 AM,87.8,71.6,58,30.15,7.0,Calm,Calm,-,N/A,,Clear,0,2013-07-18 14:56:00
11:55 AM,89.6,71.6,55,30.15,7.0,WNW,3.5,-,N/A,,Clear,300,2013-07-18 15:55:00
12:56 PM,91.4,69.8,49,30.14,7.0,South,4.6,-,N/A,,Clear,190,2013-07-18 16:56:00
1:56 PM,91.4,68.0,46,30.13,7.0,Calm,Calm,-,N/A,,Scattered Clouds,0,2013-07-18 17:56:00
2:56 PM,93.2,68.0,44,30.10,7.0,SSE,5.8,-,N/A,,Scattered Clouds,160,2013-07-18 18:56:00
3:56 PM,93.2,66.2,41,30.09,7.0,Calm,Calm,-,N/A,,Clear,0,2013-07-18 19:56:00
4:56 PM,93.2,68.0,44,30.08,7.0,South,4.6,-,N/A,,Clear,180,2013-07-18 20:56:00
5:56 PM,93.2,68.0,44,30.06,7.0,South,4.6,-,N/A,,Clear,170,2013-07-18 21:56:00
6:56 PM,91.4,69.8,49,30.05,7.0,South,4.6,-,N/A,,Clear,190,2013-07-18 22:56:00
7:56 PM,86.0,73.4,66,30.07,7.0,South,6.9,-,N/A,,Clear,180,2013-07-18 23:56:00
8:56 PM,84.2,73.4,70,30.09,10.0,South,8.1,-,N/A,,Clear,180,2013-07-19 00:56:00
9:15 PM,82.8,72.3,71,30.10,10.0,South,6.9,-,N/A,,Clear,180,2013-07-19 01:15:00
9:35 PM,82.4,71.8,70,30.11,10.0,South,6.9,-,N/A,,Clear,190,2013-07-19 01:35:00
9:55 PM,81.5,72.0,73,30.12,10.0,SSW,8.1,-,N/A,,Scattered Clouds,200,2013-07-19 01:55:00
9:56 PM,80.6,71.6,74,30.12,10.0,SSW,8.1,-,N/A,,Scattered Clouds,200,2013-07-19 01:56:00
10:15 PM,81.1,72.0,74,30.12,10.0,SSW,5.8,-,N/A,,Clear,200,2013-07-19 02:15:00
10:35 PM,80.2,72.1,76,30.12,10.0,South,6.9,-,N/A,,Clear,180,2013-07-19 02:35:00
10:55 PM,79.7,72.5,79,30.12,10.0,SSW,4.6,-,N/A,,Clear,200,2013-07-19 02:55:00
11:15 PM,79.2,72.5,80,30.12,10.0,SSW,5.8,-,N/A,,Clear,210,2013-07-19 03:15:00
11:35 PM,79.2,72.5,80,30.13,10.0,SSW,6.9,-,N/A,,Clear,200,2013-07-19 03:35:00
11:55 PM,78.8,72.5,81,30.13,10.0,SSW,5.8,-,N/A,,Clear,200,2013-07-19 03:55:00